Clay, Michigan
Current Conditions -  °F | °C
As of 3:58 AM on Saturday 20 Dec 2014 (Local Time) from KMTC Reporting Station
Broken Clouds Broken Clouds  
Wind Chill: 22°   Ceiling: 2700
Heat Index: 22°   Visibility: 10mi
Dew Point: 21°   Wind: 3mph
Humidity: 99%   Direction: 250°WSW
Pressure: 30.27"   Gusts: NA
Location:  42.6418°N, 82.5677°W
Report Text: KMTC 200858Z AUTO 25003KT 10SM BKN027 M06/M06 A3027 RMK AO2 SLP262 T10581059 52006 $
Loading
Personal Weather Stations






























Interactive Weather Map New forecast layout! Learn more

10-Day Weather Forecast

Advertisements
Track Severe Weather on mobile